createdAt,value
2022-10-23T00:00:49.079Z,15.13
2022-10-23T00:03:20.955Z,14.27
2022-10-23T00:05:52.865Z,15.57
2022-10-23T00:08:24.693Z,13.33
2022-10-23T00:10:56.588Z,14.20
2022-10-23T00:13:28.784Z,13.40
2022-10-23T00:16:00.582Z,13.00
2022-10-23T00:18:32.743Z,13.47
2022-10-23T00:21:05.676Z,14.87
2022-10-23T00:23:37.679Z,14.87
2022-10-23T00:26:15.662Z,14.90
2022-10-23T00:28:50.899Z,14.27
2022-10-23T00:31:24.346Z,13.97
2022-10-23T00:33:56.257Z,13.23
2022-10-23T00:36:28.057Z,14.43
2022-10-23T00:39:00.242Z,14.20
2022-10-23T00:41:32.735Z,13.93
2022-10-23T00:44:11.137Z,13.07
2022-10-23T00:46:42.902Z,14.30
2022-10-23T00:49:15.396Z,14.37
2022-10-23T00:51:50.289Z,14.57
2022-10-23T00:54:25.642Z,14.70
2022-10-23T00:56:59.864Z,12.90
2022-10-23T00:59:32.576Z,13.20
2022-10-23T01:02:05.513Z,14.13
2022-10-23T01:04:37.543Z,15.10
2022-10-23T01:07:25.071Z,14.10
2022-10-23T01:10:33.162Z,14.57
2022-10-23T01:13:12.907Z,14.30
2022-10-23T01:16:00.761Z,13.17
2022-10-23T01:18:38.976Z,14.30
2022-10-23T01:21:29.215Z,14.43
2022-10-23T01:24:19.712Z,14.27
2022-10-23T01:26:59.134Z,13.37
2022-10-23T01:29:41.446Z,13.03
2022-10-23T01:32:15.401Z,14.17
2022-10-23T01:34:52.021Z,13.67
2022-10-23T01:37:41.692Z,15.60
2022-10-23T01:40:27.538Z,15.00
2022-10-23T01:43:05.339Z,13.27
2022-10-23T01:45:45.970Z,14.87
2022-10-23T01:48:27.851Z,13.97
2022-10-23T01:51:03.871Z,15.43
2022-10-23T01:53:41.267Z,13.77
2022-10-23T01:56:27.313Z,14.77
2022-10-23T01:59:03.224Z,14.40
2022-10-23T02:01:42.107Z,14.23
2022-10-23T02:04:19.156Z,15.43
2022-10-23T02:06:51.020Z,14.23
2022-10-23T02:09:23.027Z,14.87
2022-10-23T02:12:29.385Z,13.10
2022-10-23T02:15:25.683Z,14.47
2022-10-23T02:18:05.693Z,13.67
2022-10-23T02:20:47.943Z,15.00
2022-10-23T02:23:36.014Z,15.33
2022-10-23T02:26:31.225Z,13.63
2022-10-23T02:29:09.431Z,13.73
2022-10-23T02:31:43.666Z,13.93
2022-10-23T02:34:15.610Z,15.80
2022-10-23T02:36:47.499Z,14.10
2022-10-23T02:39:22.581Z,14.30
2022-10-23T02:41:54.642Z,14.30
2022-10-23T02:44:44.675Z,15.03
2022-10-23T02:47:25.070Z,13.30
2022-10-23T02:50:08.186Z,13.67
2022-10-23T02:52:50.791Z,12.70
2022-10-23T02:55:41.705Z,14.33
2022-10-23T02:58:19.224Z,13.90
2022-10-23T03:01:06.087Z,14.20
2022-10-23T03:03:41.990Z,12.83
2022-10-23T03:06:13.882Z,14.57
2022-10-23T03:08:52.957Z,13.47
2022-10-23T03:11:24.847Z,13.70
2022-10-23T03:13:56.866Z,14.47
2022-10-23T03:16:28.740Z,12.50
2022-10-23T03:19:00.679Z,13.73
2022-10-23T03:21:32.606Z,14.90
2022-10-23T03:24:04.536Z,13.23
2022-10-23T03:26:42.425Z,11.80
2022-10-23T03:29:15.042Z,11.80
2022-10-23T03:31:50.696Z,12.10
2022-10-23T03:34:23.306Z,12.83
2022-10-23T03:36:57.934Z,11.93
2022-10-23T03:39:29.894Z,12.70
2022-10-23T03:42:02.187Z,13.10
2022-10-23T03:44:35.437Z,11.97
2022-10-23T03:47:10.078Z,13.10
2022-10-23T03:49:41.956Z,13.23
2022-10-23T03:52:13.959Z,13.47
2022-10-23T03:54:45.949Z,13.23
2022-10-23T03:57:17.823Z,13.30
2022-10-23T03:59:50.016Z,12.23
2022-10-23T04:02:22.832Z,13.40
2022-10-23T04:04:57.534Z,12.23
2022-10-23T04:07:29.552Z,11.27
2022-10-23T04:10:05.198Z,12.97
2022-10-23T04:12:38.142Z,11.80
2022-10-23T04:15:11.207Z,11.70
2022-10-23T04:17:45.431Z,11.33
2022-10-23T04:20:18.215Z,12.20
2022-10-23T04:22:50.009Z,9.63
2022-10-23T04:25:22.949Z,11.13
2022-10-23T04:27:55.532Z,10.80
2022-10-23T04:30:27.647Z,11.10
2022-10-23T04:33:00.554Z,11.87
2022-10-23T04:35:34.255Z,10.40
2022-10-23T04:38:06.261Z,11.77
2022-10-23T04:40:38.574Z,12.07
2022-10-23T04:43:10.586Z,11.50
2022-10-23T04:45:44.724Z,10.97
2022-10-23T04:48:16.801Z,9.70
2022-10-23T04:51:18.053Z,12.23
2022-10-23T04:54:04.155Z,10.27
2022-10-23T04:56:47.696Z,11.67
2022-10-23T04:59:22.813Z,10.40
2022-10-23T05:01:55.134Z,12.03
2022-10-23T05:04:28.745Z,9.67
2022-10-23T05:07:36.492Z,10.43
2022-10-23T05:10:18.683Z,10.90
2022-10-23T05:13:00.583Z,10.93
2022-10-23T05:15:33.579Z,10.77
2022-10-23T05:18:13.042Z,9.60
2022-10-23T05:20:45.722Z,9.40
2022-10-23T05:23:19.818Z,9.80
2022-10-23T05:26:03.219Z,9.80
2022-10-23T05:28:36.573Z,10.37
2022-10-23T05:31:09.618Z,9.40
2022-10-23T05:33:44.275Z,9.87
2022-10-23T05:36:16.912Z,9.13
2022-10-23T05:38:49.947Z,9.60
2022-10-23T05:41:23.333Z,10.20
2022-10-23T05:43:55.392Z,10.60
2022-10-23T05:46:47.485Z,9.63
2022-10-23T05:49:50.788Z,10.13
2022-10-23T05:52:25.212Z,10.97
2022-10-23T05:55:10.527Z,10.13
2022-10-23T05:57:53.917Z,10.93
2022-10-23T06:00:37.970Z,11.10
2022-10-23T06:03:29.868Z,12.10
2022-10-23T06:06:02.299Z,12.80
2022-10-23T06:08:45.431Z,12.17
2022-10-23T06:11:18.133Z,13.37
2022-10-23T06:14:00.956Z,13.33
2022-10-23T06:16:34.287Z,14.73
2022-10-23T06:19:06.317Z,13.70
2022-10-23T06:21:39.421Z,15.43
2022-10-23T06:24:11.727Z,15.20
2022-10-23T06:26:55.685Z,15.20
2022-10-23T06:29:39.890Z,13.73
2022-10-23T06:32:11.934Z,13.80
2022-10-23T06:34:45.231Z,13.00
2022-10-23T06:37:18.091Z,13.57
2022-10-23T06:40:16.337Z,13.47
2022-10-23T06:42:59.652Z,13.27
2022-10-23T06:46:02.838Z,14.53
2022-10-23T06:49:03.804Z,12.70
2022-10-23T06:51:39.288Z,12.23
2022-10-23T06:54:15.374Z,10.57
2022-10-23T06:56:56.158Z,11.07
2022-10-23T06:59:36.697Z,10.07
2022-10-23T07:02:09.381Z,10.63
2022-10-23T07:04:41.381Z,10.23
2022-10-23T07:07:19.585Z,11.10
2022-10-23T07:09:53.653Z,10.33
2022-10-23T07:12:30.041Z,10.80
2022-10-23T07:15:21.839Z,9.73
2022-10-23T07:17:53.902Z,10.07
2022-10-23T07:20:27.325Z,10.23
2022-10-23T07:22:59.317Z,9.73
2022-10-23T07:25:35.019Z,8.70
2022-10-23T07:28:07.405Z,8.47
2022-10-23T07:30:40.989Z,9.83
2022-10-23T07:33:13.815Z,9.50
2022-10-23T07:35:53.694Z,7.57
2022-10-23T07:38:31.519Z,8.40
2022-10-23T07:41:03.710Z,9.30
2022-10-23T07:43:37.008Z,10.07
2022-10-23T07:46:09.953Z,10.00
2022-10-23T07:48:45.263Z,10.53
2022-10-23T07:51:17.702Z,10.63
2022-10-23T07:53:52.395Z,10.13
2022-10-23T07:56:40.169Z,9.63
2022-10-23T07:59:20.443Z,9.93
2022-10-23T08:01:58.278Z,9.10
2022-10-23T08:04:36.754Z,9.23
2022-10-23T08:07:28.353Z,10.00
2022-10-23T08:10:03.010Z,8.97
2022-10-23T08:12:37.552Z,9.57
2022-10-23T08:15:10.372Z,8.90
2022-10-23T08:17:57.249Z,9.50
2022-10-23T08:20:43.981Z,9.37
2022-10-23T08:23:18.405Z,7.97
2022-10-23T08:25:57.187Z,7.47
2022-10-23T08:28:29.233Z,6.83
2022-10-23T08:31:11.549Z,8.30
2022-10-23T08:33:44.583Z,8.27
2022-10-23T08:36:22.734Z,8.40
2022-10-23T08:38:56.328Z,7.27
2022-10-23T08:41:31.823Z,8.43
2022-10-23T08:44:36.814Z,7.10
2022-10-23T08:47:13.408Z,7.83
2022-10-23T08:49:49.875Z,7.37
2022-10-23T08:52:32.287Z,8.30
2022-10-23T08:55:16.812Z,7.20
2022-10-23T08:58:06.090Z,8.20
2022-10-23T09:00:38.049Z,7.83
2022-10-23T09:03:12.261Z,7.80
2022-10-23T09:06:07.530Z,7.73
2022-10-23T09:09:02.305Z,7.53
2022-10-23T09:11:49.391Z,6.33
2022-10-23T09:14:21.808Z,6.17
2022-10-23T09:16:57.305Z,7.80
2022-10-23T09:19:31.260Z,7.83
2022-10-23T09:22:03.209Z,7.23
2022-10-23T09:24:36.418Z,6.70
2022-10-23T09:27:16.898Z,7.70
2022-10-23T09:29:51.665Z,8.13
2022-10-23T09:32:34.594Z,6.63
2022-10-23T09:35:07.048Z,7.23
2022-10-23T09:37:46.175Z,6.83
2022-10-23T09:40:40.973Z,7.83
2022-10-23T09:43:17.654Z,6.50
2022-10-23T09:45:59.568Z,8.27
2022-10-23T09:48:31.942Z,8.60
2022-10-23T09:51:24.251Z,9.37
2022-10-23T09:53:59.790Z,8.80
2022-10-23T09:56:39.474Z,7.87
2022-10-23T09:59:11.281Z,8.80
2022-10-23T10:01:50.379Z,8.60
2022-10-23T10:04:58.329Z,7.87
2022-10-23T10:07:33.339Z,7.60
2022-10-23T10:10:15.111Z,7.97
2022-10-23T10:12:55.588Z,7.50
2022-10-23T10:15:36.487Z,7.67
2022-10-23T10:18:15.921Z,7.77
2022-10-23T10:20:53.830Z,8.43
2022-10-23T10:23:44.218Z,8.67
2022-10-23T10:26:44.464Z,8.47
2022-10-23T10:29:42.181Z,8.43
2022-10-23T10:32:32.535Z,7.13
2022-10-23T10:35:13.216Z,7.33
2022-10-23T10:38:03.622Z,6.90
2022-10-23T10:40:40.158Z,7.57
2022-10-23T10:43:27.599Z,7.23
2022-10-23T10:46:17.593Z,7.50
2022-10-23T10:48:53.005Z,7.47
2022-10-23T10:52:17.866Z,6.60
2022-10-23T10:55:13.672Z,6.30
2022-10-23T10:57:48.727Z,7.10
2022-10-23T11:00:22.581Z,8.07
2022-10-23T11:03:37.452Z,8.47
2022-10-23T11:06:21.050Z,7.97
2022-10-23T11:08:58.101Z,7.20
2022-10-23T11:11:38.321Z,7.73
2022-10-23T11:14:18.642Z,6.50
2022-10-23T11:16:59.905Z,7.13
2022-10-23T11:20:02.934Z,7.70
2022-10-23T11:22:44.109Z,7.80
2022-10-23T11:25:50.459Z,6.20
2022-10-23T11:28:50.444Z,7.03
2022-10-23T11:31:34.168Z,6.00
2022-10-23T11:34:44.904Z,5.97
2022-10-23T11:37:21.441Z,6.10
2022-10-23T11:40:08.222Z,6.23
2022-10-23T11:42:39.989Z,6.30
2022-10-23T11:45:31.565Z,6.70
2022-10-23T11:48:23.653Z,7.40
2022-10-23T11:50:56.480Z,6.73
2022-10-23T11:53:32.794Z,6.43
2022-10-23T11:56:12.498Z,7.57
2022-10-23T11:58:49.587Z,7.87
2022-10-23T12:01:31.427Z,6.90
2022-10-23T12:04:14.993Z,7.90
2022-10-23T12:06:52.745Z,6.73
2022-10-23T12:10:20.509Z,7.80
2022-10-23T12:13:00.281Z,6.63
2022-10-23T12:15:34.874Z,6.70
2022-10-23T12:18:15.104Z,7.10
2022-10-23T12:21:13.555Z,6.67
2022-10-23T12:24:12.754Z,6.50
2022-10-23T12:26:59.662Z,5.80
2022-10-23T12:29:59.471Z,5.70
2022-10-23T12:32:37.198Z,6.00
2022-10-23T12:35:18.315Z,5.93
2022-10-23T12:38:10.266Z,5.30
2022-10-23T12:40:53.561Z,4.97
2022-10-23T12:43:25.491Z,5.90
2022-10-23T12:46:05.682Z,5.83
2022-10-23T12:48:48.040Z,6.00
2022-10-23T12:51:31.109Z,6.07
2022-10-23T12:54:03.849Z,7.20
2022-10-23T12:56:36.938Z,6.00
2022-10-23T12:59:17.494Z,6.63
2022-10-23T13:01:52.765Z,7.40
2022-10-23T13:04:30.688Z,7.00
2022-10-23T13:07:03.893Z,6.60
2022-10-23T13:09:41.442Z,6.33
2022-10-23T13:12:24.354Z,8.00
2022-10-23T13:15:12.429Z,6.77
2022-10-23T13:17:45.668Z,7.00
2022-10-23T13:20:17.797Z,6.80
2022-10-23T13:22:59.451Z,7.77
2022-10-23T13:25:34.977Z,6.80
2022-10-23T13:28:21.375Z,6.07
2022-10-23T13:31:12.327Z,7.00
2022-10-23T13:33:46.276Z,5.97
2022-10-23T13:36:18.709Z,6.70
2022-10-23T13:39:02.358Z,7.30
2022-10-23T13:41:41.131Z,6.20
2022-10-23T13:44:15.539Z,6.10
2022-10-23T13:46:48.463Z,6.87
2022-10-23T13:49:20.522Z,5.97
2022-10-23T13:51:55.570Z,6.07
2022-10-23T13:54:29.099Z,5.50
2022-10-23T13:57:01.243Z,5.90
2022-10-23T13:59:33.258Z,5.40
2022-10-23T14:02:17.764Z,6.30
2022-10-23T14:04:50.837Z,5.80
2022-10-23T14:07:22.675Z,5.50
2022-10-23T14:09:54.698Z,5.53
2022-10-23T14:12:26.502Z,4.67
2022-10-23T14:14:58.440Z,5.63
2022-10-23T14:17:30.325Z,6.20
2022-10-23T14:20:04.131Z,4.83
2022-10-23T14:22:38.011Z,5.77
2022-10-23T14:25:09.983Z,5.13
2022-10-23T14:27:41.903Z,5.40
2022-10-23T14:30:14.216Z,4.63
2022-10-23T14:32:46.493Z,4.13
2022-10-23T14:35:18.857Z,5.03
2022-10-23T14:37:50.753Z,5.57
2022-10-23T14:40:22.729Z,5.20
2022-10-23T14:42:54.633Z,4.60
2022-10-23T14:45:26.637Z,4.50
2022-10-23T14:48:00.913Z,4.27
2022-10-23T14:50:35.368Z,6.17
2022-10-23T14:53:07.298Z,4.90
2022-10-23T14:55:39.631Z,4.40
2022-10-23T14:58:11.550Z,5.03
2022-10-23T15:00:43.400Z,5.70
2022-10-23T15:03:15.795Z,5.40
2022-10-23T15:05:47.753Z,4.70
2022-10-23T15:08:20.677Z,5.40
2022-10-23T15:10:52.645Z,5.00
2022-10-23T15:13:24.565Z,5.97
2022-10-23T15:16:10.697Z,5.33
2022-10-23T15:18:42.811Z,5.17
2022-10-23T15:21:15.477Z,5.97
2022-10-23T15:23:48.527Z,5.60
2022-10-23T15:26:23.091Z,5.30
2022-10-23T15:28:59.646Z,4.87
2022-10-23T15:31:43.515Z,6.90
2022-10-23T15:34:21.774Z,5.10
2022-10-23T15:36:55.281Z,5.43
2022-10-23T15:39:29.422Z,5.53
2022-10-23T15:42:04.198Z,6.23
2022-10-23T15:44:36.471Z,5.67
2022-10-23T15:47:08.351Z,6.30
2022-10-23T15:49:40.324Z,6.00
2022-10-23T15:52:12.218Z,6.27
2022-10-23T15:54:44.251Z,7.40
2022-10-23T15:57:16.289Z,5.90
2022-10-23T15:59:48.200Z,5.70
2022-10-23T16:02:20.915Z,5.57
2022-10-23T16:04:52.999Z,6.73
2022-10-23T16:07:24.867Z,5.77
2022-10-23T16:09:57.149Z,5.27
2022-10-23T16:12:29.101Z,6.67
2022-10-23T16:15:01.015Z,6.53
2022-10-23T16:17:32.830Z,6.77
2022-10-23T16:20:05.150Z,5.53
2022-10-23T16:22:40.125Z,6.37
2022-10-23T16:25:14.994Z,5.47
2022-10-23T16:27:47.357Z,6.37
2022-10-23T16:30:21.205Z,6.90
2022-10-23T16:32:54.807Z,6.00
2022-10-23T16:35:26.713Z,5.97
2022-10-23T16:38:10.886Z,6.37
2022-10-23T16:40:42.845Z,5.90
2022-10-23T16:43:35.096Z,5.80
2022-10-23T16:46:35.406Z,6.10
2022-10-23T16:49:08.806Z,6.80
2022-10-23T16:51:40.587Z,6.43
2022-10-23T16:54:14.487Z,5.67
2022-10-23T16:56:47.299Z,5.40
2022-10-23T16:59:19.248Z,5.30
2022-10-23T17:01:51.292Z,6.50
2022-10-23T17:04:23.301Z,5.60
2022-10-23T17:06:55.301Z,5.37
2022-10-23T17:09:31.179Z,6.73
2022-10-23T17:12:03.290Z,6.00
2022-10-23T17:14:35.533Z,5.70
2022-10-23T17:17:09.735Z,5.70
2022-10-23T17:19:46.354Z,5.97
2022-10-23T17:22:18.730Z,5.80
2022-10-23T17:24:53.900Z,5.30
2022-10-23T17:27:26.303Z,6.70
2022-10-23T17:29:58.192Z,5.90
2022-10-23T17:32:30.120Z,5.17
2022-10-23T17:35:05.092Z,5.67
2022-10-23T17:37:37.015Z,6.10
2022-10-23T17:40:09.338Z,6.03
2022-10-23T17:42:41.757Z,5.87
2022-10-23T17:45:13.705Z,5.50
2022-10-23T17:47:45.574Z,5.80
2022-10-23T17:50:17.692Z,5.90
2022-10-23T17:52:49.643Z,5.73
2022-10-23T17:55:21.887Z,5.80
2022-10-23T17:57:53.755Z,6.70
2022-10-23T18:00:25.746Z,5.87
2022-10-23T18:02:57.557Z,6.37
2022-10-23T18:05:31.958Z,5.60
2022-10-23T18:08:03.806Z,4.90
2022-10-23T18:10:36.149Z,7.17
2022-10-23T18:13:07.953Z,5.83
2022-10-23T18:15:39.912Z,6.10
2022-10-23T18:18:11.901Z,5.37
2022-10-23T18:20:44.827Z,5.20
2022-10-23T18:23:16.683Z,6.27
2022-10-23T18:25:48.710Z,5.80
2022-10-23T18:28:20.836Z,5.60
2022-10-23T18:30:56.084Z,5.20
2022-10-23T18:33:29.092Z,6.30
2022-10-23T18:36:00.917Z,5.57
2022-10-23T18:38:32.816Z,4.97
2022-10-23T18:41:04.694Z,6.00
2022-10-23T18:43:43.752Z,5.77
2022-10-23T18:46:16.403Z,5.77
2022-10-23T18:48:50.743Z,5.70
2022-10-23T18:51:28.571Z,5.30
2022-10-23T18:54:07.527Z,5.77
2022-10-23T18:56:39.838Z,6.40
2022-10-23T18:59:14.550Z,6.30
2022-10-23T19:01:46.530Z,6.20
2022-10-23T19:04:19.035Z,6.13
2022-10-23T19:06:51.047Z,6.03
2022-10-23T19:09:23.010Z,6.87
2022-10-23T19:11:54.943Z,5.27
2022-10-23T19:14:28.692Z,7.10
2022-10-23T19:17:05.324Z,8.03
2022-10-23T19:19:43.436Z,6.60
2022-10-23T19:22:16.086Z,6.20
2022-10-23T19:24:57.081Z,7.00
2022-10-23T19:27:30.019Z,6.50
2022-10-23T19:30:03.440Z,6.73
2022-10-23T19:32:35.395Z,5.90
2022-10-23T19:35:08.394Z,5.70
2022-10-23T19:37:40.614Z,7.23
2022-10-23T19:40:14.164Z,6.60
2022-10-23T19:42:46.088Z,6.80
2022-10-23T19:45:18.103Z,5.90
2022-10-23T19:47:50.036Z,5.70
2022-10-23T19:50:22.230Z,6.70
2022-10-23T19:52:54.100Z,7.40
2022-10-23T19:55:26.084Z,5.90
2022-10-23T19:57:57.961Z,6.67
2022-10-23T20:00:29.842Z,6.00
2022-10-23T20:03:01.763Z,5.60
2022-10-23T20:05:33.608Z,5.43
2022-10-23T20:08:05.574Z,5.67
2022-10-23T20:10:46.534Z,5.93
2022-10-23T20:13:20.231Z,6.40
2022-10-23T20:15:52.499Z,6.33
2022-10-23T20:18:25.932Z,6.33
2022-10-23T20:21:01.425Z,5.90
2022-10-23T20:23:33.302Z,7.23
2022-10-23T20:26:10.448Z,7.33
2022-10-23T20:28:46.831Z,6.10
2022-10-23T20:31:20.085Z,6.70
2022-10-23T20:33:52.433Z,6.80
2022-10-23T20:36:26.460Z,6.40
2022-10-23T20:39:01.103Z,5.97
2022-10-23T20:41:36.822Z,6.30
2022-10-23T20:44:11.369Z,5.97
2022-10-23T20:46:43.911Z,6.30
2022-10-23T20:49:16.194Z,6.30
2022-10-23T20:51:55.156Z,5.70
2022-10-23T20:54:28.842Z,6.77
2022-10-23T20:57:01.070Z,6.80
2022-10-23T20:59:34.123Z,6.70
2022-10-23T21:02:06.320Z,5.50
2022-10-23T21:04:38.372Z,4.20
2022-10-23T21:07:11.414Z,5.00
2022-10-23T21:09:43.753Z,4.77
2022-10-23T21:12:15.728Z,4.70
2022-10-23T21:14:47.601Z,4.87
2022-10-23T21:17:19.458Z,4.80
2022-10-23T21:19:51.459Z,4.50
2022-10-23T21:22:23.273Z,4.67
2022-10-23T21:24:56.983Z,4.70
2022-10-23T21:27:29.039Z,4.47
2022-10-23T21:30:00.972Z,4.30
2022-10-23T21:32:33.071Z,4.47
2022-10-23T21:35:05.336Z,4.00
2022-10-23T21:37:37.194Z,3.40
2022-10-23T21:40:09.779Z,3.63
2022-10-23T21:42:41.631Z,3.07
2022-10-23T21:45:13.560Z,3.40
2022-10-23T21:47:45.665Z,3.40
2022-10-23T21:50:17.788Z,2.53
2022-10-23T21:52:52.602Z,2.23
2022-10-23T21:55:28.587Z,2.80
2022-10-23T21:58:00.465Z,2.03
2022-10-23T22:00:32.345Z,1.90
2022-10-23T22:03:04.212Z,2.00
2022-10-23T22:05:36.079Z,2.13
2022-10-23T22:08:08.076Z,1.50
2022-10-23T22:10:39.952Z,1.63
2022-10-23T22:13:11.755Z,1.90
2022-10-23T22:18:16.327Z,1.37
2022-10-23T22:20:48.182Z,1.53
2022-10-23T22:23:20.019Z,1.53
2022-10-23T22:25:51.904Z,1.30
2022-10-23T22:28:23.910Z,1.43
2022-10-23T22:30:55.878Z,1.20
2022-10-23T22:33:29.048Z,1.80
2022-10-23T22:36:02.247Z,2.10
2022-10-23T22:38:34.152Z,1.80
2022-10-23T22:41:07.186Z,1.70
2022-10-23T22:43:39.293Z,2.23
2022-10-23T22:46:13.174Z,1.80
2022-10-23T22:48:45.628Z,2.13
2022-10-23T22:51:19.322Z,2.10
2022-10-23T22:53:51.142Z,1.83
2022-10-23T22:56:25.757Z,2.33
2022-10-23T22:58:57.882Z,2.00
2022-10-23T23:01:33.167Z,2.60
2022-10-23T23:04:19.483Z,2.87
2022-10-23T23:06:57.008Z,2.80
2022-10-23T23:09:29.135Z,2.40
2022-10-23T23:12:00.962Z,3.17
2022-10-23T23:14:32.966Z,3.00
2022-10-23T23:17:05.923Z,3.40
2022-10-23T23:19:38.002Z,3.27
2022-10-23T23:22:09.852Z,3.67
2022-10-23T23:24:41.839Z,5.10
2022-10-23T23:27:13.682Z,3.43
2022-10-23T23:29:45.503Z,3.30
2022-10-23T23:32:17.382Z,5.33
2022-10-23T23:34:49.297Z,3.40
2022-10-23T23:37:21.479Z,3.23
2022-10-23T23:39:53.362Z,3.80
2022-10-23T23:42:25.247Z,3.60
2022-10-23T23:45:02.922Z,4.27
2022-10-23T23:47:45.730Z,3.87
2022-10-23T23:50:17.870Z,3.93
2022-10-23T23:52:49.866Z,3.90
2022-10-23T23:55:21.814Z,3.80
2022-10-23T23:57:53.697Z,3.80
